Aérodrome :
LOGIN :

S'inscrire | Disclaimer

   EN    FR    IT 

 










Légende :    VFR   VFR Marginal   IFR   IFR Intensif   IFR Très Intensif
Visi : 
Plafond : 
>= 8 km
>= 3000ft
5 à 8 km
1000 à 3000 ft
1500m à 5 km
500 à 1000 ft
800 à 1500m
200 à 500 ft
< 800m
< 200 ft
Symboles :   Orages  Brouillard  Fortes neiges  Fortes précipitations  Vent > 20 kt
SIGMETs :   Divers  Orages  Givrage  Turbulence  Onde Orograph.  Cendres Volcan.







- Altitude de l'aérodrome : 436 ft
- Code IATA : ANG
- Voir les cartes d'approche


LFBU - Angoulême Brie Champniers

DERNIER METAR :
  • 212230Z AUTO VRB02KT CAVOK 17/14 Q1017

METARs EXPIRÉS :
  • 212200Z AUTO 28003KT CAVOK 18/14 Q1017
  • 212130Z AUTO 27004KT CAVOK 18/14 Q1017
  • 212100Z AUTO 27006KT CAVOK 18/13 Q1017 NOSIG
  • 212030Z AUTO 27006KT CAVOK 19/13 Q1017 NOSIG
  • 212000Z AUTO 27007KT CAVOK 20/14 Q1016 NOSIG

TAF TAF LFBU
Valide du 21 à 18h jusqu'au 22 à 18h UTC


211700Z 2118/2218 30005KT CAVOK
PROB30 2203/2206 0800 BCFG
Pas de NOTAMs connus pour ce terrain.



MET'MAP, la Météo Aéronautique d'un coup d'oeil ! - Copyright ORBIFLY Décembre 2007 - Disclaimer

ORBIFLY MET'MAP TEAM :

Programmation & Développement : Alexandra Zaïnal
Conception & Développement : Baudouin d'Aumeries
Co-Programmation & Développement : Marc-Olivier Méhu
Soutien technique & logistique : Manuel Goepfert

Contact : metmap@orbifly.com




SOURCES & CREDITS :

   NOAA